sensor_id;sensor_type;location;lat;lon;timestamp;P1;durP1;ratioP1;P2;durP2;ratioP2
6997;SDS011;3539;47.982;12.238;2024-03-02T00:01:10;42.57;;;28.67;;
6997;SDS011;3539;47.982;12.238;2024-03-02T00:03:37;36.50;;;27.33;;
6997;SDS011;3539;47.982;12.238;2024-03-02T00:06:04;34.20;;;27.33;;
6997;SDS011;3539;47.982;12.238;2024-03-02T00:08:31;35.93;;;26.67;;
6997;SDS011;3539;47.982;12.238;2024-03-02T00:10:58;34.77;;;26.07;;
6997;SDS011;3539;47.982;12.238;2024-03-02T00:13:28;30.23;;;23.37;;
6997;SDS011;3539;47.982;12.238;2024-03-02T00:15:56;28.57;;;23.73;;
6997;SDS011;3539;47.982;12.238;2024-03-02T00:18:26;27.77;;;23.03;;
6997;SDS011;3539;47.982;12.238;2024-03-02T00:20:54;24.60;;;21.77;;
6997;SDS011;3539;47.982;12.238;2024-03-02T00:23:22;23.47;;;20.33;;
6997;SDS011;3539;47.982;12.238;2024-03-02T00:25:51;24.87;;;21.20;;
6997;SDS011;3539;47.982;12.238;2024-03-02T00:28:19;25.53;;;20.73;;
6997;SDS011;3539;47.982;12.238;2024-03-02T00:33:34;22.47;;;20.07;;
6997;SDS011;3539;47.982;12.238;2024-03-02T00:36:01;23.77;;;20.40;;
6997;SDS011;3539;47.982;12.238;2024-03-02T00:38:29;35.37;;;21.83;;
6997;SDS011;3539;47.982;12.238;2024-03-02T00:40:56;18.43;;;13.47;;
6997;SDS011;3539;47.982;12.238;2024-03-02T00:43:43;17.23;;;12.40;;
6997;SDS011;3539;47.982;12.238;2024-03-02T00:46:12;19.60;;;17.70;;
6997;SDS011;3539;47.982;12.238;2024-03-02T00:48:44;20.50;;;18.40;;
6997;SDS011;3539;47.982;12.238;2024-03-02T00:51:20;21.00;;;18.90;;
6997;SDS011;3539;47.982;12.238;2024-03-02T00:53:48;14.23;;;10.67;;
6997;SDS011;3539;47.982;12.238;2024-03-02T00:56:14;18.03;;;16.13;;
6997;SDS011;3539;47.982;12.238;2024-03-02T00:58:42;18.87;;;17.07;;
6997;SDS011;3539;47.982;12.238;2024-03-02T01:01:08;18.20;;;16.47;;
6997;SDS011;3539;47.982;12.238;2024-03-02T01:03:35;17.77;;;16.07;;
6997;SDS011;3539;47.982;12.238;2024-03-02T01:06:05;18.10;;;16.37;;
6997;SDS011;3539;47.982;12.238;2024-03-02T01:08:33;15.17;;;10.20;;
6997;SDS011;3539;47.982;12.238;2024-03-02T01:11:00;21.33;;;17.13;;
6997;SDS011;3539;47.982;12.238;2024-03-02T01:13:27;20.50;;;18.40;;
6997;SDS011;3539;47.982;12.238;2024-03-02T01:15:53;14.10;;;9.90;;
6997;SDS011;3539;47.982;12.238;2024-03-02T01:18:20;12.77;;;9.13;;
6997;SDS011;3539;47.982;12.238;2024-03-02T01:20:48;17.87;;;16.17;;
6997;SDS011;3539;47.982;12.238;2024-03-02T01:23:18;18.70;;;16.80;;
6997;SDS011;3539;47.982;12.238;2024-03-02T01:25:45;19.53;;;17.53;;
6997;SDS011;3539;47.982;12.238;2024-03-02T01:28:12;22.27;;;19.93;;
6997;SDS011;3539;47.982;12.238;2024-03-02T01:30:39;26.07;;;23.43;;
6997;SDS011;3539;47.982;12.238;2024-03-02T01:33:06;28.03;;;25.17;;
6997;SDS011;3539;47.982;12.238;2024-03-02T01:35:32;21.27;;;13.70;;
6997;SDS011;3539;47.982;12.238;2024-03-02T01:38:00;22.37;;;13.67;;
6997;SDS011;3539;47.982;12.238;2024-03-02T01:40:28;25.10;;;22.50;;
6997;SDS011;3539;47.982;12.238;2024-03-02T01:42:55;28.57;;;25.47;;
6997;SDS011;3539;47.982;12.238;2024-03-02T01:45:23;22.80;;;14.53;;
6997;SDS011;3539;47.982;12.238;2024-03-02T01:47:50;29.67;;;26.50;;
6997;SDS011;3539;47.982;12.238;2024-03-02T01:50:17;32.70;;;26.57;;
6997;SDS011;3539;47.982;12.238;2024-03-02T01:52:51;28.50;;;25.50;;
6997;SDS011;3539;47.982;12.238;2024-03-02T01:55:18;28.43;;;25.37;;
6997;SDS011;3539;47.982;12.238;2024-03-02T01:57:46;28.37;;;24.87;;
6997;SDS011;3539;47.982;12.238;2024-03-02T02:00:13;18.57;;;11.57;;
6997;SDS011;3539;47.982;12.238;2024-03-02T02:02:41;16.67;;;11.83;;
6997;SDS011;3539;47.982;12.238;2024-03-02T02:05:08;24.37;;;21.77;;
6997;SDS011;3539;47.982;12.238;2024-03-02T02:07:35;25.80;;;21.83;;
6997;SDS011;3539;47.982;12.238;2024-03-02T02:10:02;25.57;;;22.87;;
6997;SDS011;3539;47.982;12.238;2024-03-02T02:12:29;24.47;;;21.83;;
6997;SDS011;3539;47.982;12.238;2024-03-02T02:14:57;27.60;;;22.47;;
6997;SDS011;3539;47.982;12.238;2024-03-02T02:17:24;26.33;;;23.47;;
6997;SDS011;3539;47.982;12.238;2024-03-02T02:19:51;27.47;;;24.47;;
6997;SDS011;3539;47.982;12.238;2024-03-02T02:22:19;26.73;;;23.83;;
6997;SDS011;3539;47.982;12.238;2024-03-02T02:24:45;26.80;;;22.33;;
6997;SDS011;3539;47.982;12.238;2024-03-02T02:27:12;22.70;;;20.30;;
6997;SDS011;3539;47.982;12.238;2024-03-02T02:29:40;24.37;;;20.70;;
6997;SDS011;3539;47.982;12.238;2024-03-02T02:32:07;16.63;;;10.30;;
6997;SDS011;3539;47.982;12.238;2024-03-02T02:34:33;21.63;;;19.43;;
6997;SDS011;3539;47.982;12.238;2024-03-02T02:37:00;22.53;;;20.23;;
6997;SDS011;3539;47.982;12.238;2024-03-02T02:39:28;22.20;;;19.87;;
6997;SDS011;3539;47.982;12.238;2024-03-02T02:41:55;19.13;;;10.70;;
6997;SDS011;3539;47.982;12.238;2024-03-02T02:44:22;23.20;;;20.43;;
6997;SDS011;3539;47.982;12.238;2024-03-02T02:46:49;22.50;;;20.20;;
6997;SDS011;3539;47.982;12.238;2024-03-02T02:49:15;23.70;;;20.73;;
6997;SDS011;3539;47.982;12.238;2024-03-02T02:51:42;23.83;;;21.33;;
6997;SDS011;3539;47.982;12.238;2024-03-02T02:54:09;18.00;;;11.07;;
6997;SDS011;3539;47.982;12.238;2024-03-02T02:56:37;28.93;;;24.13;;
6997;SDS011;3539;47.982;12.238;2024-03-02T02:59:04;37.27;;;28.10;;
6997;SDS011;3539;47.982;12.238;2024-03-02T03:01:31;28.67;;;16.53;;
6997;SDS011;3539;47.982;12.238;2024-03-02T03:03:57;37.03;;;30.10;;
6997;SDS011;3539;47.982;12.238;2024-03-02T03:06:24;36.00;;;28.37;;
6997;SDS011;3539;47.982;12.238;2024-03-02T03:08:51;22.60;;;12.93;;
6997;SDS011;3539;47.982;12.238;2024-03-02T03:11:18;21.83;;;12.10;;
6997;SDS011;3539;47.982;12.238;2024-03-02T03:13:46;18.37;;;11.47;;
6997;SDS011;3539;47.982;12.238;2024-03-02T03:16:13;22.40;;;19.93;;
6997;SDS011;3539;47.982;12.238;2024-03-02T03:18:40;23.60;;;20.87;;
6997;SDS011;3539;47.982;12.238;2024-03-02T03:21:07;23.87;;;20.80;;
6997;SDS011;3539;47.982;12.238;2024-03-02T03:23:33;26.00;;;21.90;;
6997;SDS011;3539;47.982;12.238;2024-03-02T03:26:00;17.83;;;11.73;;
6997;SDS011;3539;47.982;12.238;2024-03-02T03:28:27;26.63;;;22.20;;
6997;SDS011;3539;47.982;12.238;2024-03-02T03:30:55;26.47;;;22.70;;
6997;SDS011;3539;47.982;12.238;2024-03-02T03:33:21;31.70;;;25.53;;
6997;SDS011;3539;47.982;12.238;2024-03-02T03:35:48;18.47;;;11.70;;
6997;SDS011;3539;47.982;12.238;2024-03-02T03:38:15;27.50;;;23.40;;
6997;SDS011;3539;47.982;12.238;2024-03-02T03:40:42;28.20;;;23.17;;
6997;SDS011;3539;47.982;12.238;2024-03-02T03:43:10;31.37;;;25.07;;
6997;SDS011;3539;47.982;12.238;2024-03-02T03:45:36;32.77;;;26.00;;
6997;SDS011;3539;47.982;12.238;2024-03-02T03:48:05;24.63;;;13.40;;
6997;SDS011;3539;47.982;12.238;2024-03-02T03:50:32;39.37;;;29.60;;
6997;SDS011;3539;47.982;12.238;2024-03-02T03:52:58;37.00;;;29.70;;
6997;SDS011;3539;47.982;12.238;2024-03-02T03:55:25;38.47;;;28.80;;
6997;SDS011;3539;47.982;12.238;2024-03-02T03:57:52;38.00;;;29.37;;
6997;SDS011;3539;47.982;12.238;2024-03-02T04:00:18;40.07;;;29.77;;
6997;SDS011;3539;47.982;12.238;2024-03-02T04:02:45;35.00;;;28.53;;
6997;SDS011;3539;47.982;12.238;2024-03-02T04:05:13;33.60;;;27.67;;
6997;SDS011;3539;47.982;12.238;2024-03-02T04:07:40;43.50;;;31.87;;
6997;SDS011;3539;47.982;12.238;2024-03-02T04:10:08;42.50;;;32.97;;
6997;SDS011;3539;47.982;12.238;2024-03-02T04:12:36;30.70;;;15.57;;
6997;SDS011;3539;47.982;12.238;2024-03-02T04:15:03;26.50;;;21.87;;
6997;SDS011;3539;47.982;12.238;2024-03-02T04:17:31;25.27;;;13.27;;
6997;SDS011;3539;47.982;12.238;2024-03-02T04:19:59;44.33;;;32.30;;
6997;SDS011;3539;47.982;12.238;2024-03-02T04:22:27;54.23;;;37.07;;
6997;SDS011;3539;47.982;12.238;2024-03-02T04:24:54;52.17;;;37.73;;
6997;SDS011;3539;47.982;12.238;2024-03-02T04:27:21;51.93;;;37.30;;
6997;SDS011;3539;47.982;12.238;2024-03-02T04:29:47;63.77;;;39.47;;
6997;SDS011;3539;47.982;12.238;2024-03-02T04:32:14;29.17;;;14.70;;
6997;SDS011;3539;47.982;12.238;2024-03-02T04:34:41;37.27;;;25.60;;
6997;SDS011;3539;47.982;12.238;2024-03-02T04:37:08;38.27;;;26.43;;
6997;SDS011;3539;47.982;12.238;2024-03-02T04:39:38;48.63;;;29.70;;
6997;SDS011;3539;47.982;12.238;2024-03-02T04:42:05;46.77;;;33.93;;
6997;SDS011;3539;47.982;12.238;2024-03-02T04:44:32;47.97;;;34.50;;
6997;SDS011;3539;47.982;12.238;2024-03-02T04:46:58;56.03;;;38.17;;
6997;SDS011;3539;47.982;12.238;2024-03-02T04:49:25;64.03;;;38.17;;
6997;SDS011;3539;47.982;12.238;2024-03-02T04:51:52;39.50;;;17.33;;
6997;SDS011;3539;47.982;12.238;2024-03-02T04:54:18;38.13;;;17.93;;
6997;SDS011;3539;47.982;12.238;2024-03-02T04:56:46;36.90;;;17.67;;
6997;SDS011;3539;47.982;12.238;2024-03-02T04:59:15;40.70;;;18.07;;
6997;SDS011;3539;47.982;12.238;2024-03-02T05:01:43;35.20;;;17.30;;
6997;SDS011;3539;47.982;12.238;2024-03-02T05:04:10;37.73;;;16.87;;
6997;SDS011;3539;47.982;12.238;2024-03-02T05:06:37;36.10;;;16.33;;
6997;SDS011;3539;47.982;12.238;2024-03-02T05:09:05;34.50;;;16.40;;
6997;SDS011;3539;47.982;12.238;2024-03-02T05:11:32;33.23;;;15.37;;
6997;SDS011;3539;47.982;12.238;2024-03-02T05:14:18;53.37;;;36.63;;
6997;SDS011;3539;47.982;12.238;2024-03-02T05:16:44;60.03;;;39.17;;
6997;SDS011;3539;47.982;12.238;2024-03-02T05:19:11;75.00;;;40.90;;
6997;SDS011;3539;47.982;12.238;2024-03-02T05:21:38;54.40;;;38.47;;
6997;SDS011;3539;47.982;12.238;2024-03-02T05:24:04;43.33;;;19.07;;
6997;SDS011;3539;47.982;12.238;2024-03-02T05:26:31;34.73;;;17.67;;
6997;SDS011;3539;47.982;12.238;2024-03-02T05:28:58;39.87;;;17.23;;
6997;SDS011;3539;47.982;12.238;2024-03-02T05:31:26;54.53;;;38.20;;
6997;SDS011;3539;47.982;12.238;2024-03-02T05:33:53;34.03;;;17.63;;
6997;SDS011;3539;47.982;12.238;2024-03-02T05:36:19;33.63;;;17.13;;
6997;SDS011;3539;47.982;12.238;2024-03-02T05:38:47;36.93;;;18.27;;
6997;SDS011;3539;47.982;12.238;2024-03-02T05:41:13;44.17;;;19.03;;
6997;SDS011;3539;47.982;12.238;2024-03-02T05:43:40;39.00;;;19.80;;
6997;SDS011;3539;47.982;12.238;2024-03-02T05:46:07;62.50;;;41.73;;
6997;SDS011;3539;47.982;12.238;2024-03-02T05:48:35;65.93;;;42.97;;
6997;SDS011;3539;47.982;12.238;2024-03-02T05:51:02;66.93;;;45.67;;
6997;SDS011;3539;47.982;12.238;2024-03-02T05:53:29;55.13;;;40.33;;
6997;SDS011;3539;47.982;12.238;2024-03-02T05:55:56;49.27;;;21.93;;
6997;SDS011;3539;47.982;12.238;2024-03-02T05:58:23;61.90;;;41.60;;
6997;SDS011;3539;47.982;12.238;2024-03-02T06:01:02;57.70;;;41.57;;
6997;SDS011;3539;47.982;12.238;2024-03-02T06:03:29;64.13;;;42.63;;
6997;SDS011;3539;47.982;12.238;2024-03-02T06:05:58;47.67;;;20.93;;
6997;SDS011;3539;47.982;12.238;2024-03-02T06:08:24;58.60;;;41.33;;
6997;SDS011;3539;47.982;12.238;2024-03-02T06:10:51;43.47;;;19.37;;
6997;SDS011;3539;47.982;12.238;2024-03-02T06:13:18;50.27;;;35.70;;
6997;SDS011;3539;47.982;12.238;2024-03-02T06:15:44;44.97;;;33.30;;
6997;SDS011;3539;47.982;12.238;2024-03-02T06:18:11;45.27;;;33.10;;
6997;SDS011;3539;47.982;12.238;2024-03-02T06:20:38;39.67;;;30.27;;
6997;SDS011;3539;47.982;12.238;2024-03-02T06:23:06;27.20;;;15.10;;
6997;SDS011;3539;47.982;12.238;2024-03-02T06:25:32;37.30;;;29.10;;
6997;SDS011;3539;47.982;12.238;2024-03-02T06:27:59;27.13;;;13.63;;
6997;SDS011;3539;47.982;12.238;2024-03-02T06:30:26;38.23;;;27.83;;
6997;SDS011;3539;47.982;12.238;2024-03-02T06:32:53;37.03;;;27.90;;
6997;SDS011;3539;47.982;12.238;2024-03-02T06:35:19;41.20;;;29.70;;
6997;SDS011;3539;47.982;12.238;2024-03-02T06:37:46;28.53;;;15.47;;
6997;SDS011;3539;47.982;12.238;2024-03-02T06:40:14;42.37;;;32.10;;
6997;SDS011;3539;47.982;12.238;2024-03-02T06:42:41;31.33;;;16.40;;
6997;SDS011;3539;47.982;12.238;2024-03-02T06:45:08;53.70;;;33.57;;
6997;SDS011;3539;47.982;12.238;2024-03-02T06:47:35;49.10;;;33.97;;
6997;SDS011;3539;47.982;12.238;2024-03-02T06:50:01;43.47;;;33.13;;
6997;SDS011;3539;47.982;12.238;2024-03-02T06:52:28;48.47;;;36.10;;
6997;SDS011;3539;47.982;12.238;2024-03-02T06:54:55;50.43;;;35.77;;
6997;SDS011;3539;47.982;12.238;2024-03-02T06:57:23;46.70;;;35.60;;
6997;SDS011;3539;47.982;12.238;2024-03-02T06:59:50;46.13;;;34.80;;
6997;SDS011;3539;47.982;12.238;2024-03-02T07:02:20;45.37;;;20.60;;
6997;SDS011;3539;47.982;12.238;2024-03-02T07:04:48;50.27;;;38.63;;
6997;SDS011;3539;47.982;12.238;2024-03-02T07:07:16;51.70;;;39.40;;
6997;SDS011;3539;47.982;12.238;2024-03-02T07:09:43;39.13;;;21.23;;
6997;SDS011;3539;47.982;12.238;2024-03-02T07:12:08;40.03;;;21.30;;
6997;SDS011;3539;47.982;12.238;2024-03-02T07:14:37;46.83;;;24.83;;
6997;SDS011;3539;47.982;12.238;2024-03-02T07:17:17;50.57;;;39.07;;
6997;SDS011;3539;47.982;12.238;2024-03-02T07:19:44;51.63;;;40.43;;
6997;SDS011;3539;47.982;12.238;2024-03-02T07:22:11;56.73;;;42.50;;
6997;SDS011;3539;47.982;12.238;2024-03-02T07:24:41;45.27;;;22.47;;
6997;SDS011;3539;47.982;12.238;2024-03-02T07:27:08;55.57;;;42.37;;
6997;SDS011;3539;47.982;12.238;2024-03-02T07:29:36;53.17;;;23.80;;
6997;SDS011;3539;47.982;12.238;2024-03-02T07:32:03;58.17;;;44.07;;
6997;SDS011;3539;47.982;12.238;2024-03-02T07:34:31;56.97;;;42.77;;
6997;SDS011;3539;47.982;12.238;2024-03-02T07:36:58;65.37;;;45.60;;
6997;SDS011;3539;47.982;12.238;2024-03-02T07:39:25;62.83;;;46.13;;
6997;SDS011;3539;47.982;12.238;2024-03-02T07:41:52;69.63;;;46.93;;
6997;SDS011;3539;47.982;12.238;2024-03-02T07:44:19;57.37;;;26.63;;
6997;SDS011;3539;47.982;12.238;2024-03-02T07:46:47;66.10;;;45.63;;
6997;SDS011;3539;47.982;12.238;2024-03-02T07:49:14;61.83;;;45.33;;
6997;SDS011;3539;47.982;12.238;2024-03-02T07:51:41;63.70;;;45.30;;
6997;SDS011;3539;47.982;12.238;2024-03-02T07:54:08;58.33;;;44.63;;
6997;SDS011;3539;47.982;12.238;2024-03-02T07:56:35;56.17;;;43.90;;
6997;SDS011;3539;47.982;12.238;2024-03-02T07:59:02;50.87;;;41.73;;
6997;SDS011;3539;47.982;12.238;2024-03-02T08:01:30;48.07;;;40.60;;
6997;SDS011;3539;47.982;12.238;2024-03-02T08:03:59;45.63;;;38.97;;
6997;SDS011;3539;47.982;12.238;2024-03-02T08:06:26;95.93;;;63.03;;
6997;SDS011;3539;47.982;12.238;2024-03-02T08:08:54;46.63;;;37.63;;
6997;SDS011;3539;47.982;12.238;2024-03-02T08:11:20;42.00;;;35.57;;
6997;SDS011;3539;47.982;12.238;2024-03-02T08:13:47;43.30;;;36.20;;
6997;SDS011;3539;47.982;12.238;2024-03-02T08:16:14;43.60;;;36.47;;
6997;SDS011;3539;47.982;12.238;2024-03-02T08:18:41;43.27;;;36.70;;
6997;SDS011;3539;47.982;12.238;2024-03-02T08:21:09;41.83;;;35.10;;
6997;SDS011;3539;47.982;12.238;2024-03-02T08:23:36;41.10;;;35.07;;
6997;SDS011;3539;47.982;12.238;2024-03-02T08:26:03;41.53;;;34.60;;
6997;SDS011;3539;47.982;12.238;2024-03-02T08:28:30;37.07;;;33.07;;
6997;SDS011;3539;47.982;12.238;2024-03-02T08:30:57;39.13;;;34.33;;
6997;SDS011;3539;47.982;12.238;2024-03-02T08:33:24;37.90;;;33.80;;
6997;SDS011;3539;47.982;12.238;2024-03-02T08:35:51;40.90;;;33.40;;
6997;SDS011;3539;47.982;12.238;2024-03-02T08:38:19;36.23;;;31.53;;
6997;SDS011;3539;47.982;12.238;2024-03-02T08:40:46;37.37;;;32.20;;
6997;SDS011;3539;47.982;12.238;2024-03-02T08:43:13;33.67;;;29.97;;
6997;SDS011;3539;47.982;12.238;2024-03-02T08:45:40;33.83;;;29.97;;
6997;SDS011;3539;47.982;12.238;2024-03-02T08:48:07;33.77;;;29.33;;
6997;SDS011;3539;47.982;12.238;2024-03-02T08:50:34;31.07;;;27.87;;
6997;SDS011;3539;47.982;12.238;2024-03-02T08:53:01;30.47;;;26.87;;
6997;SDS011;3539;47.982;12.238;2024-03-02T08:55:30;32.30;;;28.00;;
6997;SDS011;3539;47.982;12.238;2024-03-02T08:57:57;29.07;;;25.87;;
6997;SDS011;3539;47.982;12.238;2024-03-02T09:00:24;28.70;;;24.83;;
6997;SDS011;3539;47.982;12.238;2024-03-02T09:02:51;29.03;;;25.93;;
6997;SDS011;3539;47.982;12.238;2024-03-02T09:05:18;30.67;;;27.33;;
6997;SDS011;3539;47.982;12.238;2024-03-02T09:07:45;26.67;;;23.87;;
6997;SDS011;3539;47.982;12.238;2024-03-02T09:10:12;26.77;;;23.63;;
6997;SDS011;3539;47.982;12.238;2024-03-02T09:12:40;27.30;;;22.97;;
6997;SDS011;3539;47.982;12.238;2024-03-02T09:15:07;26.13;;;23.23;;
6997;SDS011;3539;47.982;12.238;2024-03-02T09:17:34;25.63;;;22.73;;
6997;SDS011;3539;47.982;12.238;2024-03-02T09:20:01;25.77;;;22.53;;
6997;SDS011;3539;47.982;12.238;2024-03-02T09:22:29;24.63;;;21.23;;
6997;SDS011;3539;47.982;12.238;2024-03-02T09:24:57;25.30;;;22.00;;
6997;SDS011;3539;47.982;12.238;2024-03-02T09:27:24;26.00;;;23.00;;
6997;SDS011;3539;47.982;12.238;2024-03-02T09:29:53;23.60;;;21.10;;
6997;SDS011;3539;47.982;12.238;2024-03-02T09:32:20;24.17;;;20.97;;
6997;SDS011;3539;47.982;12.238;2024-03-02T09:34:46;24.63;;;21.50;;
6997;SDS011;3539;47.982;12.238;2024-03-02T09:37:14;23.30;;;20.70;;
6997;SDS011;3539;47.982;12.238;2024-03-02T09:39:43;24.77;;;21.33;;
6997;SDS011;3539;47.982;12.238;2024-03-02T09:42:10;24.80;;;20.20;;
6997;SDS011;3539;47.982;12.238;2024-03-02T09:44:36;23.13;;;20.23;;
6997;SDS011;3539;47.982;12.238;2024-03-02T09:47:06;24.00;;;20.10;;
6997;SDS011;3539;47.982;12.238;2024-03-02T09:49:33;24.30;;;20.90;;
6997;SDS011;3539;47.982;12.238;2024-03-02T09:52:01;22.80;;;19.60;;
6997;SDS011;3539;47.982;12.238;2024-03-02T09:54:30;23.37;;;20.40;;
6997;SDS011;3539;47.982;12.238;2024-03-02T09:56:56;22.87;;;20.07;;
6997;SDS011;3539;47.982;12.238;2024-03-02T09:59:23;23.13;;;20.00;;
6997;SDS011;3539;47.982;12.238;2024-03-02T10:01:56;20.90;;;18.63;;
6997;SDS011;3539;47.982;12.238;2024-03-02T10:04:26;20.50;;;18.40;;
6997;SDS011;3539;47.982;12.238;2024-03-02T10:07:09;21.10;;;18.60;;
6997;SDS011;3539;47.982;12.238;2024-03-02T10:09:36;20.63;;;18.43;;
6997;SDS011;3539;47.982;12.238;2024-03-02T10:12:03;20.70;;;18.10;;
6997;SDS011;3539;47.982;12.238;2024-03-02T10:14:30;19.53;;;17.30;;
6997;SDS011;3539;47.982;12.238;2024-03-02T10:17:01;21.00;;;17.47;;
6997;SDS011;3539;47.982;12.238;2024-03-02T10:19:30;18.37;;;16.00;;
6997;SDS011;3539;47.982;12.238;2024-03-02T10:21:58;18.37;;;15.90;;
6997;SDS011;3539;47.982;12.238;2024-03-02T10:24:25;17.93;;;16.03;;
6997;SDS011;3539;47.982;12.238;2024-03-02T10:26:52;18.43;;;15.57;;
6997;SDS011;3539;47.982;12.238;2024-03-02T10:29:21;19.07;;;16.40;;
6997;SDS011;3539;47.982;12.238;2024-03-02T10:31:48;18.70;;;15.90;;
6997;SDS011;3539;47.982;12.238;2024-03-02T10:34:14;17.87;;;15.97;;
6997;SDS011;3539;47.982;12.238;2024-03-02T10:36:44;17.43;;;15.60;;
6997;SDS011;3539;47.982;12.238;2024-03-02T10:39:12;20.23;;;15.83;;
6997;SDS011;3539;47.982;12.238;2024-03-02T10:41:40;18.50;;;15.67;;
6997;SDS011;3539;47.982;12.238;2024-03-02T10:44:09;18.50;;;15.67;;
6997;SDS011;3539;47.982;12.238;2024-03-02T10:46:37;17.80;;;15.90;;
6997;SDS011;3539;47.982;12.238;2024-03-02T10:49:05;20.07;;;16.10;;
6997;SDS011;3539;47.982;12.238;2024-03-02T10:51:33;17.67;;;15.70;;
6997;SDS011;3539;47.982;12.238;2024-03-02T10:54:03;16.27;;;13.80;;
6997;SDS011;3539;47.982;12.238;2024-03-02T10:56:31;15.00;;;13.47;;
6997;SDS011;3539;47.982;12.238;2024-03-02T10:59:02;17.63;;;14.80;;
6997;SDS011;3539;47.982;12.238;2024-03-02T11:01:31;15.97;;;13.50;;
6997;SDS011;3539;47.982;12.238;2024-03-02T11:03:59;17.03;;;14.77;;
6997;SDS011;3539;47.982;12.238;2024-03-02T11:06:29;16.73;;;13.80;;
6997;SDS011;3539;47.982;12.238;2024-03-02T11:09:00;14.30;;;12.87;;
6997;SDS011;3539;47.982;12.238;2024-03-02T11:11:32;14.63;;;12.57;;
6997;SDS011;3539;47.982;12.238;2024-03-02T11:14:02;13.63;;;12.23;;
6997;SDS011;3539;47.982;12.238;2024-03-02T11:16:34;14.73;;;12.23;;
6997;SDS011;3539;47.982;12.238;2024-03-02T11:19:02;13.50;;;12.10;;
6997;SDS011;3539;47.982;12.238;2024-03-02T11:21:31;13.83;;;12.33;;
6997;SDS011;3539;47.982;12.238;2024-03-02T11:23:58;13.47;;;12.07;;
6997;SDS011;3539;47.982;12.238;2024-03-02T11:26:28;14.23;;;12.27;;
6997;SDS011;3539;47.982;12.238;2024-03-02T11:28:55;12.47;;;10.90;;
6997;SDS011;3539;47.982;12.238;2024-03-02T11:34:28;13.63;;;11.83;;
6997;SDS011;3539;47.982;12.238;2024-03-02T11:36:55;15.07;;;11.87;;
6997;SDS011;3539;47.982;12.238;2024-03-02T11:39:24;14.07;;;12.67;;
6997;SDS011;3539;47.982;12.238;2024-03-02T11:41:52;14.57;;;12.50;;
6997;SDS011;3539;47.982;12.238;2024-03-02T11:44:20;14.03;;;12.63;;
6997;SDS011;3539;47.982;12.238;2024-03-02T11:46:47;14.60;;;12.93;;
6997;SDS011;3539;47.982;12.238;2024-03-02T11:49:20;15.47;;;13.80;;
6997;SDS011;3539;47.982;12.238;2024-03-02T11:52:04;15.67;;;13.60;;
6997;SDS011;3539;47.982;12.238;2024-03-02T11:54:32;14.60;;;13.10;;
6997;SDS011;3539;47.982;12.238;2024-03-02T11:57:02;15.20;;;13.17;;
6997;SDS011;3539;47.982;12.238;2024-03-02T11:59:30;14.83;;;13.23;;
6997;SDS011;3539;47.982;12.238;2024-03-02T12:01:57;15.53;;;13.43;;
6997;SDS011;3539;47.982;12.238;2024-03-02T12:04:27;15.80;;;13.70;;
6997;SDS011;3539;47.982;12.238;2024-03-02T12:06:56;14.13;;;12.73;;
6997;SDS011;3539;47.982;12.238;2024-03-02T12:09:27;16.10;;;12.30;;
6997;SDS011;3539;47.982;12.238;2024-03-02T12:12:03;14.80;;;12.90;;
6997;SDS011;3539;47.982;12.238;2024-03-02T12:14:31;12.30;;;11.00;;
6997;SDS011;3539;47.982;12.238;2024-03-02T12:16:58;13.20;;;10.67;;
6997;SDS011;3539;47.982;12.238;2024-03-02T12:19:25;13.30;;;11.07;;
6997;SDS011;3539;47.982;12.238;2024-03-02T12:21:52;12.80;;;11.00;;
6997;SDS011;3539;47.982;12.238;2024-03-02T12:24:20;12.53;;;10.67;;
6997;SDS011;3539;47.982;12.238;2024-03-02T12:26:47;14.70;;;10.73;;
6997;SDS011;3539;47.982;12.238;2024-03-02T12:29:15;13.57;;;11.67;;
6997;SDS011;3539;47.982;12.238;2024-03-02T12:31:42;12.13;;;10.30;;
6997;SDS011;3539;47.982;12.238;2024-03-02T12:34:10;13.50;;;11.67;;
6997;SDS011;3539;47.982;12.238;2024-03-02T12:36:38;12.13;;;10.60;;
6997;SDS011;3539;47.982;12.238;2024-03-02T12:39:06;13.23;;;10.17;;
6997;SDS011;3539;47.982;12.238;2024-03-02T12:41:35;11.67;;;9.63;;
6997;SDS011;3539;47.982;12.238;2024-03-02T12:44:02;12.17;;;10.37;;
6997;SDS011;3539;47.982;12.238;2024-03-02T12:46:31;12.27;;;10.30;;
6997;SDS011;3539;47.982;12.238;2024-03-02T12:48:58;11.43;;;9.83;;
6997;SDS011;3539;47.982;12.238;2024-03-02T12:51:26;11.63;;;9.90;;
6997;SDS011;3539;47.982;12.238;2024-03-02T12:53:53;11.23;;;9.93;;
6997;SDS011;3539;47.982;12.238;2024-03-02T12:56:21;10.93;;;9.50;;
6997;SDS011;3539;47.982;12.238;2024-03-02T12:58:47;12.77;;;9.57;;
6997;SDS011;3539;47.982;12.238;2024-03-02T13:01:14;10.63;;;9.53;;
6997;SDS011;3539;47.982;12.238;2024-03-02T13:03:45;10.97;;;9.60;;
6997;SDS011;3539;47.982;12.238;2024-03-02T13:06:15;11.67;;;9.47;;
6997;SDS011;3539;47.982;12.238;2024-03-02T13:08:43;12.03;;;9.43;;
6997;SDS011;3539;47.982;12.238;2024-03-02T13:11:11;9.47;;;8.47;;
6997;SDS011;3539;47.982;12.238;2024-03-02T13:13:38;11.50;;;9.37;;
6997;SDS011;3539;47.982;12.238;2024-03-02T13:16:07;10.67;;;8.53;;
6997;SDS011;3539;47.982;12.238;2024-03-02T13:18:35;10.30;;;8.90;;
6997;SDS011;3539;47.982;12.238;2024-03-02T13:21:03;11.37;;;9.43;;
6997;SDS011;3539;47.982;12.238;2024-03-02T13:23:30;10.47;;;8.97;;
6997;SDS011;3539;47.982;12.238;2024-03-02T13:25:57;10.53;;;8.63;;
6997;SDS011;3539;47.982;12.238;2024-03-02T13:28:24;9.27;;;8.27;;
6997;SDS011;3539;47.982;12.238;2024-03-02T13:30:51;9.33;;;8.33;;
6997;SDS011;3539;47.982;12.238;2024-03-02T13:33:18;10.50;;;8.27;;
6997;SDS011;3539;47.982;12.238;2024-03-02T13:35:47;12.07;;;9.37;;
6997;SDS011;3539;47.982;12.238;2024-03-02T13:38:16;9.43;;;8.40;;
6997;SDS011;3539;47.982;12.238;2024-03-02T13:40:43;10.17;;;8.43;;
6997;SDS011;3539;47.982;12.238;2024-03-02T13:43:10;10.83;;;8.60;;
6997;SDS011;3539;47.982;12.238;2024-03-02T13:45:37;11.00;;;9.90;;
6997;SDS011;3539;47.982;12.238;2024-03-02T13:48:05;11.13;;;9.83;;
6997;SDS011;3539;47.982;12.238;2024-03-02T13:50:32;12.93;;;9.83;;
6997;SDS011;3539;47.982;12.238;2024-03-02T13:52:59;12.10;;;9.97;;
6997;SDS011;3539;47.982;12.238;2024-03-02T13:55:27;11.37;;;9.60;;
6997;SDS011;3539;47.982;12.238;2024-03-02T13:57:54;11.33;;;10.00;;
6997;SDS011;3539;47.982;12.238;2024-03-02T14:00:21;12.00;;;10.57;;
6997;SDS011;3539;47.982;12.238;2024-03-02T14:02:48;13.03;;;10.10;;
6997;SDS011;3539;47.982;12.238;2024-03-02T14:05:15;12.80;;;10.90;;
6997;SDS011;3539;47.982;12.238;2024-03-02T14:07:42;11.37;;;10.17;;
6997;SDS011;3539;47.982;12.238;2024-03-02T14:10:09;13.77;;;12.03;;
6997;SDS011;3539;47.982;12.238;2024-03-02T14:12:38;14.43;;;12.07;;
6997;SDS011;3539;47.982;12.238;2024-03-02T14:15:05;12.97;;;11.60;;
6997;SDS011;3539;47.982;12.238;2024-03-02T14:17:32;16.97;;;12.17;;
6997;SDS011;3539;47.982;12.238;2024-03-02T14:20:00;15.27;;;13.23;;
6997;SDS011;3539;47.982;12.238;2024-03-02T14:22:27;14.80;;;12.70;;
6997;SDS011;3539;47.982;12.238;2024-03-02T14:24:53;16.20;;;12.40;;
6997;SDS011;3539;47.982;12.238;2024-03-02T14:27:20;13.87;;;12.37;;
6997;SDS011;3539;47.982;12.238;2024-03-02T14:29:48;18.40;;;15.30;;
6997;SDS011;3539;47.982;12.238;2024-03-02T14:32:15;73.40;;;39.90;;
6997;SDS011;3539;47.982;12.238;2024-03-02T14:34:42;20.07;;;15.57;;
6997;SDS011;3539;47.982;12.238;2024-03-02T14:37:11;30.83;;;20.87;;
6997;SDS011;3539;47.982;12.238;2024-03-02T14:39:38;26.33;;;18.27;;
6997;SDS011;3539;47.982;12.238;2024-03-02T14:42:05;16.50;;;13.90;;
6997;SDS011;3539;47.982;12.238;2024-03-02T14:44:32;17.60;;;14.47;;